To NAV CANADA Home Page Login to a new session Search on AWWS site Feedback and Comments Disclaimer Vers la page française équivalente Tips FAQ What's new on the site To the Forecasts and Observations / NOTAM section To "File a Flight Plan" website Publications and other links Update of the User's profile FIC Telephone Numbers My Weather Data Folder Route Weather Data Regional Weather Data Local Weather Data To the Forecasts and Observations / NOTAM section
Request Generated 12/04/2016 at 22:23:33 UTC . Weather information available at that time is displayed.

METAR/TAF

LA RONGE (BARBER FIELD)/SK    

METAR CYVC 042200Z 11003KT 15SM BKN100 M03/M07 A2950 RMK AC6 SLP013=
METAR CYVC 042100Z 21003KT 150V250 15SM SCT075 BKN090 M01/M07 A2950
RMK AC3AC2 SLP013=
METAR CYVC 042000Z 19004KT 150V220 15SM BKN077 M02/M06 A2951 RMK AC6
SLP016=

TAF CYVC 041838Z 0419/0507 20005KT P6SM FEW008 BKN015 BKN070 TEMPO
0419/0424 SCT015 BKN070
FM050000 24005KT P6SM BKN008 BKN080 TEMPO 0500/0504 SCT008 SCT080
FM050400 26005KT P6SM -SN SCT008 OVC015 TEMPO 0504/0507 4SM -SN
BKN008 OVC015
RMK NXT FCST BY 050100Z=
Your time UTC time
Weather data provided by Environment Canada and NAV CANADA